sensor_id;sensor_type;location;lat;lon;timestamp;temperature;humidity
24252;DHT22;12380;51.118;4.176;2023-08-30T00:00:45;13.50;99.90
24252;DHT22;12380;51.118;4.176;2023-08-30T00:03:13;13.60;99.90
24252;DHT22;12380;51.118;4.176;2023-08-30T00:05:39;13.70;99.90
24252;DHT22;12380;51.118;4.176;2023-08-30T00:08:05;13.70;99.90
24252;DHT22;12380;51.118;4.176;2023-08-30T00:10:34;13.80;99.90
24252;DHT22;12380;51.118;4.176;2023-08-30T00:12:59;13.80;99.90
24252;DHT22;12380;51.118;4.176;2023-08-30T00:15:25;13.90;99.90
24252;DHT22;12380;51.118;4.176;2023-08-30T00:17:50;13.90;99.90
24252;DHT22;12380;51.118;4.176;2023-08-30T00:20:19;14.00;99.90
24252;DHT22;12380;51.118;4.176;2023-08-30T00:22:45;14.00;99.90
24252;DHT22;12380;51.118;4.176;2023-08-30T00:25:13;14.10;99.90
24252;DHT22;12380;51.118;4.176;2023-08-30T00:27:38;14.10;99.90
24252;DHT22;12380;51.118;4.176;2023-08-30T00:30:04;14.10;99.90
24252;DHT22;12380;51.118;4.176;2023-08-30T00:32:30;14.10;99.90
24252;DHT22;12380;51.118;4.176;2023-08-30T00:34:55;14.10;99.90
24252;DHT22;12380;51.118;4.176;2023-08-30T00:37:21;14.10;99.90
24252;DHT22;12380;51.118;4.176;2023-08-30T00:39:47;14.10;99.90
24252;DHT22;12380;51.118;4.176;2023-08-30T00:42:12;14.10;99.90
24252;DHT22;12380;51.118;4.176;2023-08-30T00:44:38;14.10;99.90
24252;DHT22;12380;51.118;4.176;2023-08-30T00:47:04;14.00;99.90
24252;DHT22;12380;51.118;4.176;2023-08-30T00:49:29;14.00;99.90
24252;DHT22;12380;51.118;4.176;2023-08-30T00:51:56;14.10;99.90
24252;DHT22;12380;51.118;4.176;2023-08-30T00:54:22;14.00;99.90
24252;DHT22;12380;51.118;4.176;2023-08-30T00:56:47;13.90;99.90
24252;DHT22;12380;51.118;4.176;2023-08-30T00:59:15;13.90;99.90
24252;DHT22;12380;51.118;4.176;2023-08-30T01:01:41;13.90;99.90
24252;DHT22;12380;51.118;4.176;2023-08-30T01:04:07;13.90;99.90
24252;DHT22;12380;51.118;4.176;2023-08-30T01:06:32;13.80;99.90
24252;DHT22;12380;51.118;4.176;2023-08-30T01:09:01;13.70;99.90
24252;DHT22;12380;51.118;4.176;2023-08-30T01:11:36;13.50;99.90
24252;DHT22;12380;51.118;4.176;2023-08-30T01:14:12;13.50;99.90
24252;DHT22;12380;51.118;4.176;2023-08-30T01:16:38;13.50;99.90
24252;DHT22;12380;51.118;4.176;2023-08-30T01:19:26;13.40;99.90
24252;DHT22;12380;51.118;4.176;2023-08-30T01:24:37;13.50;99.90
24252;DHT22;12380;51.118;4.176;2023-08-30T01:27:10;13.50;99.90
24252;DHT22;12380;51.118;4.176;2023-08-30T01:29:36;13.40;99.90
24252;DHT22;12380;51.118;4.176;2023-08-30T01:32:03;13.30;99.90
24252;DHT22;12380;51.118;4.176;2023-08-30T01:34:34;13.30;99.90
24252;DHT22;12380;51.118;4.176;2023-08-30T01:37:00;13.20;99.90
24252;DHT22;12380;51.118;4.176;2023-08-30T01:39:27;13.10;99.90
24252;DHT22;12380;51.118;4.176;2023-08-30T01:41:53;13.20;99.90
24252;DHT22;12380;51.118;4.176;2023-08-30T01:44:33;13.20;99.90
24252;DHT22;12380;51.118;4.176;2023-08-30T01:46:59;13.20;99.90
24252;DHT22;12380;51.118;4.176;2023-08-30T01:49:25;13.20;99.90
24252;DHT22;12380;51.118;4.176;2023-08-30T01:51:51;13.10;99.90
24252;DHT22;12380;51.118;4.176;2023-08-30T01:54:18;13.10;99.90
24252;DHT22;12380;51.118;4.176;2023-08-30T01:56:44;13.10;99.90
24252;DHT22;12380;51.118;4.176;2023-08-30T01:59:10;13.00;99.90
24252;DHT22;12380;51.118;4.176;2023-08-30T02:01:35;13.00;99.90
24252;DHT22;12380;51.118;4.176;2023-08-30T02:04:01;13.00;99.90
24252;DHT22;12380;51.118;4.176;2023-08-30T02:06:30;12.90;99.90
24252;DHT22;12380;51.118;4.176;2023-08-30T02:11:32;12.70;99.90
24252;DHT22;12380;51.118;4.176;2023-08-30T02:13:59;12.80;99.90
24252;DHT22;12380;51.118;4.176;2023-08-30T02:16:26;12.70;99.90
24252;DHT22;12380;51.118;4.176;2023-08-30T02:18:52;12.70;99.90
24252;DHT22;12380;51.118;4.176;2023-08-30T02:21:18;12.70;99.90
24252;DHT22;12380;51.118;4.176;2023-08-30T02:23:44;12.70;99.90
24252;DHT22;12380;51.118;4.176;2023-08-30T02:26:10;12.70;99.90
24252;DHT22;12380;51.118;4.176;2023-08-30T02:28:35;12.70;99.90
24252;DHT22;12380;51.118;4.176;2023-08-30T02:31:03;12.80;99.90
24252;DHT22;12380;51.118;4.176;2023-08-30T02:33:31;12.90;99.90
24252;DHT22;12380;51.118;4.176;2023-08-30T02:35:57;12.90;99.90
24252;DHT22;12380;51.118;4.176;2023-08-30T02:38:22;12.90;99.90
24252;DHT22;12380;51.118;4.176;2023-08-30T02:40:48;13.00;99.90
24252;DHT22;12380;51.118;4.176;2023-08-30T02:43:14;13.10;99.90
24252;DHT22;12380;51.118;4.176;2023-08-30T02:45:40;13.10;99.90
24252;DHT22;12380;51.118;4.176;2023-08-30T02:48:05;13.10;99.90
24252;DHT22;12380;51.118;4.176;2023-08-30T02:50:33;13.20;99.90
24252;DHT22;12380;51.118;4.176;2023-08-30T02:52:59;13.20;99.90
24252;DHT22;12380;51.118;4.176;2023-08-30T02:55:27;13.30;99.90
24252;DHT22;12380;51.118;4.176;2023-08-30T02:57:53;13.20;99.90
24252;DHT22;12380;51.118;4.176;2023-08-30T03:00:18;13.20;99.90
24252;DHT22;12380;51.118;4.176;2023-08-30T03:02:44;13.20;99.90
24252;DHT22;12380;51.118;4.176;2023-08-30T03:05:12;13.20;99.90
24252;DHT22;12380;51.118;4.176;2023-08-30T03:07:37;13.30;99.90
24252;DHT22;12380;51.118;4.176;2023-08-30T03:10:06;13.30;99.90
24252;DHT22;12380;51.118;4.176;2023-08-30T03:12:31;13.40;99.90
24252;DHT22;12380;51.118;4.176;2023-08-30T03:14:58;13.50;99.90
24252;DHT22;12380;51.118;4.176;2023-08-30T03:17:26;13.50;99.90
24252;DHT22;12380;51.118;4.176;2023-08-30T03:19:52;13.60;99.90
24252;DHT22;12380;51.118;4.176;2023-08-30T03:22:20;13.60;99.90
24252;DHT22;12380;51.118;4.176;2023-08-30T03:24:46;13.50;99.90
24252;DHT22;12380;51.118;4.176;2023-08-30T03:27:12;13.50;99.90
24252;DHT22;12380;51.118;4.176;2023-08-30T03:29:38;13.50;99.90
24252;DHT22;12380;51.118;4.176;2023-08-30T03:32:03;13.50;99.90
24252;DHT22;12380;51.118;4.176;2023-08-30T03:34:29;13.50;99.90
24252;DHT22;12380;51.118;4.176;2023-08-30T03:36:54;13.60;99.90
24252;DHT22;12380;51.118;4.176;2023-08-30T03:39:20;13.70;99.90
24252;DHT22;12380;51.118;4.176;2023-08-30T03:41:46;13.70;99.90
24252;DHT22;12380;51.118;4.176;2023-08-30T03:44:12;13.70;99.90
24252;DHT22;12380;51.118;4.176;2023-08-30T03:46:39;13.60;99.90
24252;DHT22;12380;51.118;4.176;2023-08-30T03:49:05;13.60;99.90
24252;DHT22;12380;51.118;4.176;2023-08-30T03:51:31;13.80;99.90
24252;DHT22;12380;51.118;4.176;2023-08-30T03:53:56;13.70;99.90
24252;DHT22;12380;51.118;4.176;2023-08-30T03:56:24;13.70;99.90
24252;DHT22;12380;51.118;4.176;2023-08-30T03:58:50;13.80;99.90
24252;DHT22;12380;51.118;4.176;2023-08-30T04:01:15;13.80;99.90
24252;DHT22;12380;51.118;4.176;2023-08-30T04:03:41;13.80;99.90
24252;DHT22;12380;51.118;4.176;2023-08-30T04:06:07;13.70;99.90
24252;DHT22;12380;51.118;4.176;2023-08-30T04:08:32;13.60;99.90
24252;DHT22;12380;51.118;4.176;2023-08-30T04:10:58;13.60;99.90
24252;DHT22;12380;51.118;4.176;2023-08-30T04:13:23;13.70;99.90
24252;DHT22;12380;51.118;4.176;2023-08-30T04:15:51;13.70;99.90
24252;DHT22;12380;51.118;4.176;2023-08-30T04:18:17;13.70;99.90
24252;DHT22;12380;51.118;4.176;2023-08-30T04:20:44;13.70;99.90
24252;DHT22;12380;51.118;4.176;2023-08-30T04:23:09;13.70;99.90
24252;DHT22;12380;51.118;4.176;2023-08-30T04:25:38;13.90;99.90
24252;DHT22;12380;51.118;4.176;2023-08-30T04:28:03;13.80;99.90
24252;DHT22;12380;51.118;4.176;2023-08-30T04:30:29;13.80;99.90
24252;DHT22;12380;51.118;4.176;2023-08-30T04:32:58;13.70;99.90
24252;DHT22;12380;51.118;4.176;2023-08-30T04:35:24;13.60;99.90
24252;DHT22;12380;51.118;4.176;2023-08-30T04:37:50;13.50;99.90
24252;DHT22;12380;51.118;4.176;2023-08-30T04:40:16;13.40;99.90
24252;DHT22;12380;51.118;4.176;2023-08-30T04:42:41;13.30;99.90
24252;DHT22;12380;51.118;4.176;2023-08-30T04:45:07;13.30;99.90
24252;DHT22;12380;51.118;4.176;2023-08-30T04:47:32;13.30;99.90
24252;DHT22;12380;51.118;4.176;2023-08-30T04:49:58;13.30;99.90
24252;DHT22;12380;51.118;4.176;2023-08-30T04:52:24;13.20;99.90
24252;DHT22;12380;51.118;4.176;2023-08-30T04:54:50;13.20;99.90
24252;DHT22;12380;51.118;4.176;2023-08-30T04:57:16;13.20;99.90
24252;DHT22;12380;51.118;4.176;2023-08-30T04:59:42;13.20;99.90
24252;DHT22;12380;51.118;4.176;2023-08-30T05:02:08;13.20;99.90
24252;DHT22;12380;51.118;4.176;2023-08-30T05:04:34;13.20;99.90
24252;DHT22;12380;51.118;4.176;2023-08-30T05:06:59;13.20;99.90
24252;DHT22;12380;51.118;4.176;2023-08-30T05:09:25;13.20;99.90
24252;DHT22;12380;51.118;4.176;2023-08-30T05:11:51;13.20;99.90
24252;DHT22;12380;51.118;4.176;2023-08-30T05:14:17;13.20;99.90
24252;DHT22;12380;51.118;4.176;2023-08-30T05:16:44;13.20;99.90
24252;DHT22;12380;51.118;4.176;2023-08-30T05:19:09;13.20;99.90
24252;DHT22;12380;51.118;4.176;2023-08-30T05:21:35;13.30;99.90
24252;DHT22;12380;51.118;4.176;2023-08-30T05:24:01;13.40;99.90
24252;DHT22;12380;51.118;4.176;2023-08-30T05:26:27;13.40;99.90
24252;DHT22;12380;51.118;4.176;2023-08-30T05:28:53;13.40;99.90
24252;DHT22;12380;51.118;4.176;2023-08-30T05:31:21;13.50;99.90
24252;DHT22;12380;51.118;4.176;2023-08-30T05:33:47;13.40;99.90
24252;DHT22;12380;51.118;4.176;2023-08-30T05:36:12;13.50;99.90
24252;DHT22;12380;51.118;4.176;2023-08-30T05:38:38;13.50;99.90
24252;DHT22;12380;51.118;4.176;2023-08-30T05:41:03;13.50;99.90
24252;DHT22;12380;51.118;4.176;2023-08-30T05:43:30;13.60;99.90
24252;DHT22;12380;51.118;4.176;2023-08-30T05:45:56;13.60;99.90
24252;DHT22;12380;51.118;4.176;2023-08-30T05:48:27;13.60;99.90
24252;DHT22;12380;51.118;4.176;2023-08-30T05:50:52;13.60;99.90
24252;DHT22;12380;51.118;4.176;2023-08-30T05:53:18;13.70;99.90
24252;DHT22;12380;51.118;4.176;2023-08-30T05:55:43;13.80;99.90
24252;DHT22;12380;51.118;4.176;2023-08-30T05:58:09;13.70;99.90
24252;DHT22;12380;51.118;4.176;2023-08-30T06:00:34;13.70;99.90
24252;DHT22;12380;51.118;4.176;2023-08-30T06:03:00;13.70;99.90
24252;DHT22;12380;51.118;4.176;2023-08-30T06:05:26;13.70;99.90
24252;DHT22;12380;51.118;4.176;2023-08-30T06:07:54;13.70;99.90
24252;DHT22;12380;51.118;4.176;2023-08-30T06:10:20;13.80;99.90
24252;DHT22;12380;51.118;4.176;2023-08-30T06:12:45;13.80;99.90
24252;DHT22;12380;51.118;4.176;2023-08-30T06:15:11;13.80;99.90
24252;DHT22;12380;51.118;4.176;2023-08-30T06:17:36;13.90;99.90
24252;DHT22;12380;51.118;4.176;2023-08-30T06:20:02;14.00;99.90
24252;DHT22;12380;51.118;4.176;2023-08-30T06:22:30;14.00;99.90
24252;DHT22;12380;51.118;4.176;2023-08-30T06:24:56;14.00;99.90
24252;DHT22;12380;51.118;4.176;2023-08-30T06:27:22;14.00;99.90
24252;DHT22;12380;51.118;4.176;2023-08-30T06:29:48;14.10;99.90
24252;DHT22;12380;51.118;4.176;2023-08-30T06:32:14;14.10;99.90
24252;DHT22;12380;51.118;4.176;2023-08-30T06:34:39;14.00;99.90
24252;DHT22;12380;51.118;4.176;2023-08-30T06:37:05;14.00;99.90
24252;DHT22;12380;51.118;4.176;2023-08-30T06:39:34;14.00;99.90
24252;DHT22;12380;51.118;4.176;2023-08-30T06:42:03;14.00;99.90
24252;DHT22;12380;51.118;4.176;2023-08-30T06:44:28;14.10;99.90
24252;DHT22;12380;51.118;4.176;2023-08-30T06:46:58;14.10;99.90
24252;DHT22;12380;51.118;4.176;2023-08-30T06:49:23;14.10;99.90
24252;DHT22;12380;51.118;4.176;2023-08-30T06:51:49;14.00;99.90
24252;DHT22;12380;51.118;4.176;2023-08-30T06:54:15;14.00;99.90
24252;DHT22;12380;51.118;4.176;2023-08-30T06:56:41;14.10;99.90
24252;DHT22;12380;51.118;4.176;2023-08-30T06:59:06;14.00;99.90
24252;DHT22;12380;51.118;4.176;2023-08-30T07:01:32;14.10;99.90
24252;DHT22;12380;51.118;4.176;2023-08-30T07:03:57;14.10;99.90
24252;DHT22;12380;51.118;4.176;2023-08-30T07:06:23;14.10;99.90
24252;DHT22;12380;51.118;4.176;2023-08-30T07:08:49;14.20;99.90
24252;DHT22;12380;51.118;4.176;2023-08-30T07:11:15;14.20;99.90
24252;DHT22;12380;51.118;4.176;2023-08-30T07:13:40;14.20;99.90
24252;DHT22;12380;51.118;4.176;2023-08-30T07:16:06;14.30;99.90
24252;DHT22;12380;51.118;4.176;2023-08-30T07:18:31;14.30;99.90
24252;DHT22;12380;51.118;4.176;2023-08-30T07:20:57;14.40;99.90
24252;DHT22;12380;51.118;4.176;2023-08-30T07:23:25;14.40;99.90
24252;DHT22;12380;51.118;4.176;2023-08-30T07:25:51;14.50;99.90
24252;DHT22;12380;51.118;4.176;2023-08-30T07:28:19;14.30;99.90
24252;DHT22;12380;51.118;4.176;2023-08-30T07:30:47;14.40;99.90
24252;DHT22;12380;51.118;4.176;2023-08-30T07:33:15;14.50;99.90
24252;DHT22;12380;51.118;4.176;2023-08-30T07:35:40;14.50;99.90
24252;DHT22;12380;51.118;4.176;2023-08-30T07:38:06;14.40;99.90
24252;DHT22;12380;51.118;4.176;2023-08-30T07:40:32;14.60;99.90
24252;DHT22;12380;51.118;4.176;2023-08-30T07:42:58;14.70;99.90
24252;DHT22;12380;51.118;4.176;2023-08-30T07:45:23;14.70;99.90
24252;DHT22;12380;51.118;4.176;2023-08-30T07:47:53;14.70;99.90
24252;DHT22;12380;51.118;4.176;2023-08-30T07:50:19;14.70;99.90
24252;DHT22;12380;51.118;4.176;2023-08-30T07:52:44;14.90;99.90
24252;DHT22;12380;51.118;4.176;2023-08-30T07:55:10;14.90;99.90
24252;DHT22;12380;51.118;4.176;2023-08-30T07:57:36;15.00;99.90
24252;DHT22;12380;51.118;4.176;2023-08-30T08:00:01;15.10;99.90
24252;DHT22;12380;51.118;4.176;2023-08-30T08:02:28;15.10;99.90
24252;DHT22;12380;51.118;4.176;2023-08-30T08:04:54;15.20;99.90
24252;DHT22;12380;51.118;4.176;2023-08-30T08:07:21;15.30;99.90
24252;DHT22;12380;51.118;4.176;2023-08-30T08:09:49;15.40;99.90
24252;DHT22;12380;51.118;4.176;2023-08-30T08:12:15;15.40;99.90
24252;DHT22;12380;51.118;4.176;2023-08-30T08:14:40;15.50;99.90
24252;DHT22;12380;51.118;4.176;2023-08-30T08:17:08;15.70;99.90
24252;DHT22;12380;51.118;4.176;2023-08-30T08:19:34;15.80;99.90
24252;DHT22;12380;51.118;4.176;2023-08-30T08:22:04;15.70;99.90
24252;DHT22;12380;51.118;4.176;2023-08-30T08:24:29;15.80;99.90
24252;DHT22;12380;51.118;4.176;2023-08-30T08:26:55;15.90;99.90
24252;DHT22;12380;51.118;4.176;2023-08-30T08:29:26;15.80;99.90
24252;DHT22;12380;51.118;4.176;2023-08-30T08:31:51;16.00;99.90
24252;DHT22;12380;51.118;4.176;2023-08-30T08:34:17;16.10;99.90
24252;DHT22;12380;51.118;4.176;2023-08-30T08:36:42;16.20;99.90
24252;DHT22;12380;51.118;4.176;2023-08-30T08:39:08;16.10;99.90
24252;DHT22;12380;51.118;4.176;2023-08-30T08:41:39;16.10;99.90
24252;DHT22;12380;51.118;4.176;2023-08-30T08:44:05;16.20;99.90
24252;DHT22;12380;51.118;4.176;2023-08-30T08:46:34;16.30;99.90
24252;DHT22;12380;51.118;4.176;2023-08-30T08:49:16;16.70;99.90
24252;DHT22;12380;51.118;4.176;2023-08-30T08:51:42;17.00;99.90
24252;DHT22;12380;51.118;4.176;2023-08-30T08:54:08;17.10;99.90
24252;DHT22;12380;51.118;4.176;2023-08-30T08:56:37;17.00;99.90
24252;DHT22;12380;51.118;4.176;2023-08-30T08:59:03;17.20;99.90
24252;DHT22;12380;51.118;4.176;2023-08-30T09:01:31;17.30;99.90
24252;DHT22;12380;51.118;4.176;2023-08-30T09:03:59;17.30;99.90
24252;DHT22;12380;51.118;4.176;2023-08-30T09:06:24;17.50;99.90
24252;DHT22;12380;51.118;4.176;2023-08-30T09:08:50;18.10;99.90
24252;DHT22;12380;51.118;4.176;2023-08-30T09:11:18;18.30;99.90
24252;DHT22;12380;51.118;4.176;2023-08-30T09:13:44;18.30;99.90
24252;DHT22;12380;51.118;4.176;2023-08-30T09:16:16;18.50;99.90
24252;DHT22;12380;51.118;4.176;2023-08-30T09:18:42;18.40;99.90
24252;DHT22;12380;51.118;4.176;2023-08-30T09:21:11;18.30;99.90
24252;DHT22;12380;51.118;4.176;2023-08-30T09:23:39;18.90;99.90
24252;DHT22;12380;51.118;4.176;2023-08-30T09:26:05;19.20;99.90
24252;DHT22;12380;51.118;4.176;2023-08-30T09:28:31;19.10;99.90
24252;DHT22;12380;51.118;4.176;2023-08-30T09:30:59;19.30;99.90
24252;DHT22;12380;51.118;4.176;2023-08-30T09:33:32;19.60;99.90
24252;DHT22;12380;51.118;4.176;2023-08-30T09:35:58;20.00;99.90
24252;DHT22;12380;51.118;4.176;2023-08-30T09:38:24;20.60;99.90
24252;DHT22;12380;51.118;4.176;2023-08-30T09:40:50;20.50;99.90
24252;DHT22;12380;51.118;4.176;2023-08-30T09:43:19;19.90;99.90
24252;DHT22;12380;51.118;4.176;2023-08-30T09:45:52;19.50;99.90
24252;DHT22;12380;51.118;4.176;2023-08-30T09:48:21;19.30;99.90
24252;DHT22;12380;51.118;4.176;2023-08-30T09:50:52;18.80;99.90
24252;DHT22;12380;51.118;4.176;2023-08-30T09:53:18;19.10;99.90
24252;DHT22;12380;51.118;4.176;2023-08-30T09:55:45;19.00;99.90
24252;DHT22;12380;51.118;4.176;2023-08-30T09:58:11;19.20;99.90
24252;DHT22;12380;51.118;4.176;2023-08-30T10:00:40;19.20;99.90
24252;DHT22;12380;51.118;4.176;2023-08-30T10:03:08;19.00;99.90
24252;DHT22;12380;51.118;4.176;2023-08-30T10:05:35;19.10;99.90
24252;DHT22;12380;51.118;4.176;2023-08-30T10:08:00;19.40;99.90
24252;DHT22;12380;51.118;4.176;2023-08-30T10:10:26;19.50;99.90
24252;DHT22;12380;51.118;4.176;2023-08-30T10:12:52;19.60;99.90
24252;DHT22;12380;51.118;4.176;2023-08-30T10:15:20;19.40;99.90
24252;DHT22;12380;51.118;4.176;2023-08-30T10:17:47;20.30;99.90
24252;DHT22;12380;51.118;4.176;2023-08-30T10:20:14;21.30;99.90
24252;DHT22;12380;51.118;4.176;2023-08-30T10:22:42;21.70;99.90
24252;DHT22;12380;51.118;4.176;2023-08-30T10:25:10;21.60;99.90
24252;DHT22;12380;51.118;4.176;2023-08-30T10:27:36;21.10;99.90
24252;DHT22;12380;51.118;4.176;2023-08-30T10:30:04;20.20;99.90
24252;DHT22;12380;51.118;4.176;2023-08-30T10:32:30;19.50;99.90
24252;DHT22;12380;51.118;4.176;2023-08-30T10:35:00;19.00;99.90
24252;DHT22;12380;51.118;4.176;2023-08-30T10:37:26;19.50;99.90
24252;DHT22;12380;51.118;4.176;2023-08-30T10:39:59;20.20;99.90
24252;DHT22;12380;51.118;4.176;2023-08-30T10:42:28;20.10;99.90
24252;DHT22;12380;51.118;4.176;2023-08-30T10:44:57;19.60;99.90
24252;DHT22;12380;51.118;4.176;2023-08-30T10:47:30;19.10;99.90
24252;DHT22;12380;51.118;4.176;2023-08-30T10:50:03;18.70;99.90
24252;DHT22;12380;51.118;4.176;2023-08-30T10:52:30;18.70;99.90
24252;DHT22;12380;51.118;4.176;2023-08-30T10:55:08;19.10;99.90
24252;DHT22;12380;51.118;4.176;2023-08-30T10:57:34;18.90;99.90
24252;DHT22;12380;51.118;4.176;2023-08-30T11:02:35;19.10;99.90
24252;DHT22;12380;51.118;4.176;2023-08-30T11:05:01;20.10;99.90
24252;DHT22;12380;51.118;4.176;2023-08-30T11:07:28;20.70;99.90
24252;DHT22;12380;51.118;4.176;2023-08-30T11:09:54;20.80;99.90
24252;DHT22;12380;51.118;4.176;2023-08-30T11:12:19;21.10;99.90
24252;DHT22;12380;51.118;4.176;2023-08-30T11:14:48;21.40;99.90
24252;DHT22;12380;51.118;4.176;2023-08-30T11:17:17;21.90;99.90
24252;DHT22;12380;51.118;4.176;2023-08-30T11:19:43;22.50;99.90
24252;DHT22;12380;51.118;4.176;2023-08-30T11:22:08;23.00;99.90
24252;DHT22;12380;51.118;4.176;2023-08-30T11:24:34;23.10;99.90
24252;DHT22;12380;51.118;4.176;2023-08-30T11:27:02;22.90;99.90
24252;DHT22;12380;51.118;4.176;2023-08-30T11:29:28;21.90;99.90
24252;DHT22;12380;51.118;4.176;2023-08-30T11:31:53;21.50;99.90
24252;DHT22;12380;51.118;4.176;2023-08-30T11:34:20;21.60;99.90
24252;DHT22;12380;51.118;4.176;2023-08-30T11:36:47;21.60;99.90
24252;DHT22;12380;51.118;4.176;2023-08-30T11:39:13;22.40;99.90
24252;DHT22;12380;51.118;4.176;2023-08-30T11:41:39;22.70;97.60
24252;DHT22;12380;51.118;4.176;2023-08-30T11:44:05;23.20;97.30
24252;DHT22;12380;51.118;4.176;2023-08-30T11:46:33;22.50;99.90
24252;DHT22;12380;51.118;4.176;2023-08-30T11:48:59;21.60;99.90
24252;DHT22;12380;51.118;4.176;2023-08-30T11:51:25;21.40;99.90
24252;DHT22;12380;51.118;4.176;2023-08-30T11:53:51;21.70;99.90
24252;DHT22;12380;51.118;4.176;2023-08-30T11:56:19;21.80;99.90
24252;DHT22;12380;51.118;4.176;2023-08-30T11:58:45;22.20;99.90
24252;DHT22;12380;51.118;4.176;2023-08-30T12:01:11;23.00;99.90
24252;DHT22;12380;51.118;4.176;2023-08-30T12:03:37;23.00;99.90
24252;DHT22;12380;51.118;4.176;2023-08-30T12:06:08;22.50;99.90
24252;DHT22;12380;51.118;4.176;2023-08-30T12:08:39;21.80;99.90
24252;DHT22;12380;51.118;4.176;2023-08-30T12:11:05;21.20;99.90
24252;DHT22;12380;51.118;4.176;2023-08-30T12:13:33;21.30;99.90
24252;DHT22;12380;51.118;4.176;2023-08-30T12:15:59;21.80;99.90
24252;DHT22;12380;51.118;4.176;2023-08-30T12:18:26;21.50;99.90
24252;DHT22;12380;51.118;4.176;2023-08-30T12:21:01;21.60;99.90
24252;DHT22;12380;51.118;4.176;2023-08-30T12:23:30;21.20;99.90
24252;DHT22;12380;51.118;4.176;2023-08-30T12:28:25;21.70;99.90
24252;DHT22;12380;51.118;4.176;2023-08-30T12:30:51;21.60;99.90
24252;DHT22;12380;51.118;4.176;2023-08-30T12:33:16;21.80;99.90
24252;DHT22;12380;51.118;4.176;2023-08-30T12:35:43;21.90;99.90
24252;DHT22;12380;51.118;4.176;2023-08-30T12:38:09;21.70;99.90
24252;DHT22;12380;51.118;4.176;2023-08-30T12:40:35;20.80;99.90
24252;DHT22;12380;51.118;4.176;2023-08-30T12:43:00;20.60;99.90
24252;DHT22;12380;51.118;4.176;2023-08-30T12:45:26;20.90;99.90
24252;DHT22;12380;51.118;4.176;2023-08-30T12:47:52;21.80;99.90
24252;DHT22;12380;51.118;4.176;2023-08-30T12:50:17;22.20;99.90
24252;DHT22;12380;51.118;4.176;2023-08-30T12:52:43;21.50;99.90
24252;DHT22;12380;51.118;4.176;2023-08-30T12:55:09;20.70;99.90
24252;DHT22;12380;51.118;4.176;2023-08-30T12:57:34;20.60;99.90
24252;DHT22;12380;51.118;4.176;2023-08-30T13:00:00;21.20;99.90
24252;DHT22;12380;51.118;4.176;2023-08-30T13:02:28;21.00;99.90
24252;DHT22;12380;51.118;4.176;2023-08-30T13:04:53;20.60;99.90
24252;DHT22;12380;51.118;4.176;2023-08-30T13:07:21;20.20;99.90
24252;DHT22;12380;51.118;4.176;2023-08-30T13:09:47;19.80;99.90
24252;DHT22;12380;51.118;4.176;2023-08-30T13:12:15;19.70;99.90
24252;DHT22;12380;51.118;4.176;2023-08-30T13:14:41;19.70;99.90
24252;DHT22;12380;51.118;4.176;2023-08-30T13:17:06;19.60;99.90
24252;DHT22;12380;51.118;4.176;2023-08-30T13:19:32;19.50;99.90
24252;DHT22;12380;51.118;4.176;2023-08-30T13:21:58;19.20;99.90
24252;DHT22;12380;51.118;4.176;2023-08-30T13:24:23;19.20;99.90
24252;DHT22;12380;51.118;4.176;2023-08-30T13:26:49;19.50;99.90
24252;DHT22;12380;51.118;4.176;2023-08-30T13:29:17;19.80;99.90
24252;DHT22;12380;51.118;4.176;2023-08-30T13:31:43;19.40;99.90
24252;DHT22;12380;51.118;4.176;2023-08-30T13:34:08;18.80;99.90
24252;DHT22;12380;51.118;4.176;2023-08-30T13:36:34;19.10;99.90
24252;DHT22;12380;51.118;4.176;2023-08-30T13:39:02;19.90;99.90
24252;DHT22;12380;51.118;4.176;2023-08-30T13:41:27;20.70;99.90
24252;DHT22;12380;51.118;4.176;2023-08-30T13:43:56;20.90;99.90
24252;DHT22;12380;51.118;4.176;2023-08-30T13:46:22;21.00;99.90
24252;DHT22;12380;51.118;4.176;2023-08-30T13:48:50;21.10;99.90
24252;DHT22;12380;51.118;4.176;2023-08-30T13:51:20;21.10;99.90
24252;DHT22;12380;51.118;4.176;2023-08-30T13:53:46;20.60;99.90
24252;DHT22;12380;51.118;4.176;2023-08-30T13:56:12;20.50;99.90
24252;DHT22;12380;51.118;4.176;2023-08-30T13:58:40;21.10;99.90
24252;DHT22;12380;51.118;4.176;2023-08-30T14:01:06;21.40;99.90
24252;DHT22;12380;51.118;4.176;2023-08-30T14:03:31;21.40;99.90
24252;DHT22;12380;51.118;4.176;2023-08-30T14:05:58;21.00;99.90
24252;DHT22;12380;51.118;4.176;2023-08-30T14:08:23;21.60;99.90
24252;DHT22;12380;51.118;4.176;2023-08-30T14:10:49;21.80;99.90
24252;DHT22;12380;51.118;4.176;2023-08-30T14:13:15;21.40;99.90
24252;DHT22;12380;51.118;4.176;2023-08-30T14:15:43;20.80;99.90
24252;DHT22;12380;51.118;4.176;2023-08-30T14:18:08;20.20;99.90
24252;DHT22;12380;51.118;4.176;2023-08-30T14:20:34;20.10;99.90
24252;DHT22;12380;51.118;4.176;2023-08-30T14:23:00;20.70;99.90
24252;DHT22;12380;51.118;4.176;2023-08-30T14:25:25;20.90;99.90
24252;DHT22;12380;51.118;4.176;2023-08-30T14:27:51;20.50;99.90
24252;DHT22;12380;51.118;4.176;2023-08-30T14:30:20;20.10;99.90
24252;DHT22;12380;51.118;4.176;2023-08-30T14:32:46;20.20;99.90
24252;DHT22;12380;51.118;4.176;2023-08-30T14:35:11;20.10;99.90
24252;DHT22;12380;51.118;4.176;2023-08-30T14:37:37;20.40;99.90
24252;DHT22;12380;51.118;4.176;2023-08-30T14:40:06;21.10;99.90
24252;DHT22;12380;51.118;4.176;2023-08-30T14:42:32;21.70;99.90
24252;DHT22;12380;51.118;4.176;2023-08-30T14:44:58;21.20;99.90
24252;DHT22;12380;51.118;4.176;2023-08-30T14:47:26;20.70;99.90
24252;DHT22;12380;51.118;4.176;2023-08-30T14:49:52;20.60;99.90
24252;DHT22;12380;51.118;4.176;2023-08-30T14:52:18;20.80;99.90
24252;DHT22;12380;51.118;4.176;2023-08-30T14:54:43;20.30;99.90
24252;DHT22;12380;51.118;4.176;2023-08-30T14:57:09;20.30;99.90
24252;DHT22;12380;51.118;4.176;2023-08-30T14:59:34;20.00;99.90
24252;DHT22;12380;51.118;4.176;2023-08-30T15:02:00;20.30;99.90
24252;DHT22;12380;51.118;4.176;2023-08-30T15:04:26;20.30;99.90
24252;DHT22;12380;51.118;4.176;2023-08-30T15:06:51;19.90;99.90
24252;DHT22;12380;51.118;4.176;2023-08-30T15:09:17;19.90;99.90
24252;DHT22;12380;51.118;4.176;2023-08-30T15:11:43;20.30;99.90
24252;DHT22;12380;51.118;4.176;2023-08-30T15:14:09;20.20;99.90
24252;DHT22;12380;51.118;4.176;2023-08-30T15:16:35;20.10;99.90
24252;DHT22;12380;51.118;4.176;2023-08-30T15:19:01;20.20;99.90
24252;DHT22;12380;51.118;4.176;2023-08-30T15:21:27;20.10;99.90
24252;DHT22;12380;51.118;4.176;2023-08-30T15:23:52;20.00;99.90
24252;DHT22;12380;51.118;4.176;2023-08-30T15:26:18;20.20;99.90
24252;DHT22;12380;51.118;4.176;2023-08-30T15:28:49;20.70;99.90
24252;DHT22;12380;51.118;4.176;2023-08-30T15:31:17;20.50;99.90
24252;DHT22;12380;51.118;4.176;2023-08-30T15:33:45;20.60;99.90
24252;DHT22;12380;51.118;4.176;2023-08-30T15:36:11;20.30;99.90